Time;durP1;ratioP1;P1;durP2;ratioP2;P2;SDS_P1;SDS_P2;PMS_P1;PMS_P2;Temp;Humidity;BMP_temperature;BMP_pressure;BME280_temperature;BME280_humidity;BME280_pressure;Samples;Min_cycle;Max_cycle;Signal;HPM_P1;HPM_P2
2022/04/04 00:02:06;;;;;;;15.05;7.20;;;;;;;-3.38;100.00;99227.13;5011885;28;20025;-68
2022/04/04 00:04:31;;;;;;;16.88;8.38;;;;;;;-3.41;100.00;99193.78;5003697;28;20030;-67
2022/04/04 00:06:59;;;;;;;19.23;9.00;;;;;;;-3.40;100.00;99195.50;5008399;28;20109;-67
2022/04/04 00:09:25;;;;;;;17.90;8.48;;;;;;;-3.15;100.00;99222.91;5004454;28;20034;-67
2022/04/04 00:11:51;;;;;;;14.50;8.55;;;;;;;-3.20;100.00;99225.84;5000931;28;20065;-67
2022/04/04 00:14:16;;;;;;;17.95;8.05;;;;;;;-3.28;100.00;99220.25;5004644;28;20060;-67
2022/04/04 00:16:42;;;;;;;18.35;7.43;;;;;;;-3.38;100.00;99225.34;5007584;28;20427;-67
2022/04/04 00:19:07;;;;;;;13.68;7.40;;;;;;;-3.37;100.00;99227.03;5003375;28;20480;-68
2022/04/04 00:21:33;;;;;;;14.25;7.15;;;;;;;-3.11;100.00;99216.44;5003344;28;20034;-69
2022/04/04 00:23:58;;;;;;;10.77;6.75;;;;;;;-3.31;100.00;99178.13;4999852;28;20034;-67
2022/04/04 00:26:23;;;;;;;15.60;7.20;;;;;;;-3.08;100.00;99214.44;5007703;28;20038;-67
2022/04/04 00:28:49;;;;;;;13.43;5.97;;;;;;;-3.47;100.00;99183.63;5006975;28;20034;-67
2022/04/04 00:31:16;;;;;;;10.90;5.55;;;;;;;-3.28;100.00;99214.97;5004888;28;20105;-68
2022/04/04 00:33:41;;;;;;;10.73;5.22;;;;;;;-3.45;100.00;99216.13;5003322;28;20037;-68
2022/04/04 00:36:07;;;;;;;8.68;4.72;;;;;;;-3.60;100.00;99223.28;5009501;28;20029;-67
2022/04/04 00:38:32;;;;;;;10.68;5.57;;;;;;;-3.56;100.00;99205.44;5002575;28;20029;-68
2022/04/04 00:40:57;;;;;;;10.45;5.65;;;;;;;-3.55;100.00;99225.63;5000295;28;20037;-68
2022/04/04 00:43:23;;;;;;;8.95;4.85;;;;;;;-3.61;100.00;99220.78;5011229;28;20357;-68
2022/04/04 00:45:49;;;;;;;10.85;5.68;;;;;;;-3.67;100.00;99215.88;5006773;28;20037;-68
2022/04/04 00:48:14;;;;;;;12.38;5.65;;;;;;;-4.01;100.00;99183.75;5001697;28;20034;-68
2022/04/04 00:50:40;;;;;;;12.82;6.53;;;;;;;-3.87;100.00;99223.34;5001507;28;20041;-68
2022/04/04 00:53:09;;;;;;;14.07;6.90;;;;;;;-3.98;100.00;99220.59;5025087;28;20069;-69
2022/04/04 00:55:34;;;;;;;;;;;;;;;-3.80;100.00;99216.72;5026372;28;20005;-70
2022/04/04 00:58:00;;;;;;;11.23;5.13;;;;;;;-3.74;100.00;99210.16;5034584;28;19921;-67
2022/04/04 01:00:25;;;;;;;10.95;5.43;;;;;;;-3.62;100.00;99213.78;5026220;28;20022;-68
2022/04/04 01:02:51;;;;;;;12.45;5.85;;;;;;;-3.70;100.00;99198.41;5021972;28;20038;-68
2022/04/04 01:05:16;;;;;;;12.23;6.78;;;;;;;-3.70;100.00;99214.28;5020405;28;20045;-68
2022/04/04 01:07:41;;;;;;;15.50;6.78;;;;;;;-3.80;100.00;99216.72;5023475;28;20395;-68
2022/04/04 01:10:09;;;;;;;11.90;6.30;;;;;;;-3.91;100.00;99216.56;5022214;28;20045;-67
2022/04/04 01:12:34;;;;;;;11.68;6.07;;;;;;;-4.11;100.00;99202.03;5005413;28;20034;-67
2022/04/04 01:15:00;;;;;;;13.55;5.78;;;;;;;-3.85;100.00;99207.38;4996454;28;20548;-68
2022/04/04 01:17:27;;;;;;;10.05;5.53;;;;;;;-3.70;100.00;99216.09;5002217;28;20590;-68
2022/04/04 01:19:52;;;;;;;11.13;6.07;;;;;;;-3.97;100.00;99194.03;5004782;28;20034;-68
2022/04/04 01:22:18;;;;;;;11.13;5.35;;;;;;;-3.95;100.00;99204.53;5001729;28;20060;-68
2022/04/04 01:24:43;;;;;;;10.35;5.57;;;;;;;-3.87;100.00;99198.72;5013987;28;20504;-68
2022/04/04 01:27:10;;;;;;;14.82;6.47;;;;;;;-3.92;100.00;99201.66;5006559;28;20037;-68
2022/04/04 01:29:36;;;;;;;12.05;5.80;;;;;;;-3.80;100.00;99200.84;4999952;28;20030;-68
2022/04/04 01:32:02;;;;;;;11.48;5.90;;;;;;;-4.06;100.00;99194.66;5001234;28;20121;-68
2022/04/04 01:34:29;;;;;;;9.93;5.32;;;;;;;-4.10;100.00;99200.25;5019409;28;20112;-67
2022/04/04 01:36:55;;;;;;;10.68;4.97;;;;;;;-4.08;100.00;99183.34;4999192;28;20041;-68
2022/04/04 01:39:21;;;;;;;11.35;5.15;;;;;;;-4.16;100.00;99180.38;4999887;28;20069;-68
2022/04/04 01:41:46;;;;;;;9.82;4.90;;;;;;;-4.37;100.00;99161.47;5001123;28;20062;-68
2022/04/04 01:44:12;;;;;;;11.45;5.63;;;;;;;-4.31;100.00;99179.56;5004086;28;20065;-68
2022/04/04 01:46:37;;;;;;;10.20;5.10;;;;;;;-4.41;100.00;99184.59;5013326;28;20042;-69
2022/04/04 01:49:05;;;;;;;9.40;5.43;;;;;;;-4.62;100.00;99146.38;4993821;28;20480;-69
2022/04/04 01:51:32;;;;;;;11.70;5.53;;;;;;;-4.35;100.00;99170.13;5000381;28;20112;-67
2022/04/04 01:53:58;;;;;;;14.38;5.78;;;;;;;-4.44;100.00;99168.09;4999037;28;20061;-69
2022/04/04 01:56:24;;;;;;;10.43;5.80;;;;;;;-4.36;100.00;99168.44;4998932;28;20034;-69
2022/04/04 01:58:50;;;;;;;11.88;6.18;;;;;;;-4.31;100.00;99169.00;5008800;28;20030;-69
2022/04/04 02:01:18;;;;;;;10.85;5.63;;;;;;;-4.48;100.00;99148.97;5008925;28;20510;-69
2022/04/04 02:03:46;;;;;;;11.32;5.72;;;;;;;-4.38;100.00;99158.94;5000684;28;20026;-69
2022/04/04 02:06:13;;;;;;;11.88;6.43;;;;;;;-4.48;100.00;99145.47;5000122;28;20034;-69
2022/04/04 02:08:39;;;;;;;14.35;6.60;;;;;;;-4.33;100.00;99155.03;5004118;28;20018;-70
2022/04/04 02:11:05;;;;;;;12.30;6.78;;;;;;;-4.31;100.00;99153.16;4991871;28;20041;-69
2022/04/04 02:13:31;;;;;;;16.58;6.97;;;;;;;-4.23;100.00;99163.22;4996661;28;20156;-69
2022/04/04 02:16:00;;;;;;;13.38;6.38;;;;;;;-4.16;100.00;99145.19;4995762;28;20033;-69
2022/04/04 02:18:30;;;;;;;12.02;6.20;;;;;;;-4.27;100.00;99151.13;5005271;28;20029;-69
2022/04/04 02:20:55;;;;;;;10.95;6.28;;;;;;;-4.38;100.00;99146.56;4999785;28;20038;-69
2022/04/04 02:23:22;;;;;;;16.23;6.80;;;;;;;-4.41;100.00;99144.13;5006263;28;20025;-69
2022/04/04 02:25:48;;;;;;;10.18;5.50;;;;;;;-4.47;100.00;99147.19;5001949;28;20076;-69
2022/04/04 02:28:15;;;;;;;12.05;6.05;;;;;;;-4.52;100.00;99149.28;5005383;28;20811;-70
2022/04/04 02:30:41;;;;;;;9.90;5.55;;;;;;;-4.70;100.00;99135.47;5000186;28;20049;-69
2022/04/04 02:33:06;;;;;;;12.50;5.68;;;;;;;-4.74;100.00;99140.09;4992624;28;20480;-69
2022/04/04 02:35:32;;;;;;;10.20;5.55;;;;;;;-4.91;100.00;99117.41;5003573;28;20029;-69
2022/04/04 02:37:58;;;;;;;12.40;6.15;;;;;;;-4.70;100.00;99146.88;4995308;28;20084;-69
2022/04/04 02:40:23;;;;;;;12.93;7.18;;;;;;;-4.81;100.00;99136.16;5004590;28;20030;-69
2022/04/04 02:42:49;;;;;;;13.38;6.60;;;;;;;-4.78;100.00;99127.19;4994702;28;20022;-69
2022/04/04 02:45:14;;;;;;;15.75;7.85;;;;;;;-4.60;100.00;99135.72;4999791;28;20026;-68
2022/04/04 02:47:41;;;;;;;13.75;7.97;;;;;;;-4.52;100.00;99141.34;4991870;28;20030;-69
2022/04/04 02:50:08;;;;;;;17.90;8.93;;;;;;;-4.40;100.00;99132.63;5003313;28;20108;-68
2022/04/04 02:52:33;;;;;;;15.00;7.85;;;;;;;-4.39;100.00;99123.75;4999829;28;20117;-68
2022/04/04 02:54:58;;;;;;;18.85;9.20;;;;;;;-4.20;100.00;99128.66;4996919;28;20109;-68
2022/04/04 02:57:24;;;;;;;22.70;8.70;;;;;;;-4.18;100.00;99122.31;4998265;28;20109;-68
2022/04/04 02:59:49;;;;;;;15.93;8.40;;;;;;;-4.27;100.00;99106.22;5003450;28;20037;-68
2022/04/04 03:02:15;;;;;;;19.17;8.68;;;;;;;-4.04;100.00;99131.97;5002112;28;20537;-68
2022/04/04 03:04:42;;;;;;;15.90;7.75;;;;;;;-4.10;100.00;99132.38;4994586;28;20632;-69
2022/04/04 03:07:08;;;;;;;17.10;8.60;;;;;;;-4.23;100.00;99127.06;4996753;28;20013;-69
2022/04/04 03:09:33;;;;;;;15.50;7.90;;;;;;;-4.20;100.00;99126.03;5010899;28;20448;-69
2022/04/04 03:12:01;;;;;;;15.98;8.05;;;;;;;-4.20;100.00;99118.94;5004794;28;20145;-69
2022/04/04 03:14:26;;;;;;;14.35;7.97;;;;;;;-4.21;100.00;99133.09;4997333;28;20022;-69
2022/04/04 03:16:52;;;;;;;18.02;8.77;;;;;;;-4.07;100.00;99131.34;5002590;28;20084;-69
2022/04/04 03:19:17;;;;;;;15.52;7.82;;;;;;;-4.14;100.00;99122.97;4998876;28;20022;-69
2022/04/04 03:21:44;;;;;;;18.17;7.95;;;;;;;-4.15;100.00;99121.28;5008799;28;20029;-68
2022/04/04 03:24:10;;;;;;;14.63;6.82;;;;;;;-4.30;100.00;99117.84;5000442;28;20022;-69
2022/04/04 03:26:36;;;;;;;13.18;7.25;;;;;;;-4.32;100.00;99119.78;5008487;28;20054;-69
2022/04/04 03:29:01;;;;;;;14.60;7.10;;;;;;;-4.69;100.00;99085.22;4999712;28;20065;-70
2022/04/04 03:31:26;;;;;;;11.07;5.85;;;;;;;-4.66;100.00;99107.94;4993606;28;20488;-69
2022/04/04 03:33:52;;;;;;;13.73;6.78;;;;;;;-4.78;100.00;99090.25;5016692;28;20089;-69
2022/04/04 03:36:17;;;;;;;16.25;7.75;;;;;;;-4.54;100.00;99115.03;5006671;28;20046;-69
2022/04/04 03:38:43;;;;;;;14.13;7.68;;;;;;;-4.31;100.00;99113.53;5009616;28;20040;-69
2022/04/04 03:41:09;;;;;;;17.95;7.57;;;;;;;-4.37;100.00;99100.75;5020916;28;20026;-74
2022/04/04 03:43:35;;;;;;;15.15;7.47;;;;;;;-4.34;100.00;99119.03;5020499;28;20022;-74
2022/04/04 03:46:01;;;;;;;19.25;8.00;;;;;;;-4.55;100.00;99096.69;5018641;28;20035;-75
2022/04/04 03:48:26;;;;;;;15.55;7.30;;;;;;;-4.70;100.00;99109.91;5017801;28;20562;-66
2022/04/04 03:50:54;;;;;;;19.00;9.25;;;;;;;-4.66;100.00;99127.25;5012246;28;20065;-70
2022/04/04 03:53:21;;;;;;;17.75;8.02;;;;;;;-4.92;100.00;99102.53;5011774;28;20234;-70
2022/04/04 03:55:47;;;;;;;22.95;9.60;;;;;;;-4.86;100.00;99119.78;5011255;28;20025;-69
2022/04/04 03:58:12;;;;;;;22.27;9.30;;;;;;;-4.83;100.00;99118.72;5017822;28;20431;-71
2022/04/04 04:00:39;;;;;;;20.10;9.75;;;;;;;-5.01;100.00;99095.19;5016881;28;20026;-70
2022/04/04 04:03:18;;;;;;;18.67;9.15;;;;;;;-4.49;100.00;99122.66;5019660;28;20041;-71
2022/04/04 04:05:43;;;;;;;21.73;10.02;;;;;;;-4.52;100.00;99107.03;4997875;28;20030;-71
2022/04/04 04:08:09;;;;;;;25.63;9.63;;;;;;;-4.60;100.00;99072.38;5000688;28;20127;-73
2022/04/04 04:10:34;;;;;;;17.70;8.90;;;;;;;-4.57;100.00;99091.47;5007070;28;20033;-72
2022/04/04 04:13:02;;;;;;;19.88;9.00;;;;;;;-4.67;100.00;99090.38;5005143;28;20037;-72
2022/04/04 04:15:27;;;;;;;20.25;9.40;;;;;;;-4.43;100.00;99095.84;4998673;28;20034;-71
2022/04/04 04:17:53;;;;;;;17.08;9.13;;;;;;;-4.50;100.00;99107.78;5013610;28;20104;-72
2022/04/04 04:20:20;;;;;;;16.38;8.15;;;;;;;-4.54;100.00;99108.91;5001061;28;20022;-71
2022/04/04 04:22:52;;;;;;;24.08;9.40;;;;;;;-4.71;100.00;99076.56;5013895;28;20022;-71
2022/04/04 04:25:19;;;;;;;16.98;9.20;;;;;;;-4.55;100.00;99102.78;5001388;28;20488;-70
2022/04/04 04:27:46;;;;;;;18.48;9.45;;;;;;;-4.51;100.00;99090.22;5001804;28;20564;-71
2022/04/04 04:30:13;;;;;;;21.90;9.57;;;;;;;-4.46;100.00;99096.06;4999426;28;20026;-71
2022/04/04 04:32:50;;;;;;;18.02;10.20;;;;;;;-4.67;100.00;99064.84;4997556;28;20050;-72
2022/04/04 04:35:17;;;;;;;19.33;10.02;;;;;;;-4.65;100.00;99075.31;5006115;28;20061;-72
2022/04/04 04:37:43;;;;;;;18.88;10.70;;;;;;;-4.66;100.00;99079.75;5000392;28;20022;-71
2022/04/04 04:40:12;;;;;;;22.17;10.65;;;;;;;-4.60;100.00;99077.66;5017511;28;20124;-75
2022/04/04 04:42:38;;;;;;;22.30;10.55;;;;;;;-4.53;100.00;99073.63;5000238;28;20030;-77
2022/04/04 04:45:05;;;;;;;23.80;10.45;;;;;;;-4.33;100.00;99101.38;5011350;28;20025;-68
2022/04/04 04:47:31;;;;;;;22.60;11.23;;;;;;;-4.35;100.00;99096.19;5008271;28;20491;-74
2022/04/04 04:49:57;;;;;;;21.30;10.88;;;;;;;-4.37;100.00;99094.63;5002844;28;20041;-67
2022/04/04 04:52:23;;;;;;;19.73;10.13;;;;;;;-4.39;100.00;99102.63;5008349;28;20022;-73
2022/04/04 04:54:49;;;;;;;24.08;10.88;;;;;;;-4.51;100.00;99079.66;5006860;28;20049;-71
2022/04/04 04:57:15;;;;;;;20.75;11.32;;;;;;;-4.35;100.00;99096.19;5009582;28;20026;-70
2022/04/04 04:59:41;;;;;;;19.48;10.85;;;;;;;-4.31;100.00;99089.75;5001634;28;20026;-70
2022/04/04 05:02:06;;;;;;;18.20;10.38;;;;;;;-4.34;100.00;99084.69;5000793;28;20419;-71
2022/04/04 05:04:32;;;;;;;26.70;10.98;;;;;;;-4.34;100.00;99097.88;5023488;28;20018;-72
2022/04/04 05:06:57;;;;;;;25.55;11.13;;;;;;;-4.44;100.00;99057.19;5031000;28;20105;-72
2022/04/04 05:09:22;;;;;;;21.67;11.05;;;;;;;-4.20;100.00;99084.59;5029521;28;20037;-70
2022/04/04 05:11:48;;;;;;;25.15;12.13;;;;;;;-4.26;100.00;99063.88;5020584;28;20026;-70
2022/04/04 05:14:15;;;;;;;21.30;10.32;;;;;;;-4.09;100.00;99086.50;5022962;28;20018;-70
2022/04/04 05:16:45;;;;;;;21.77;10.45;;;;;;;-4.14;100.00;99075.41;5016701;28;20170;-73
2022/04/04 05:19:12;;;;;;;23.02;11.63;;;;;;;-3.89;100.00;99089.59;5019134;28;20034;-74
2022/04/04 05:21:37;;;;;;;24.40;12.15;;;;;;;-3.81;100.00;99074.91;5022508;28;20018;-74
2022/04/04 05:24:04;;;;;;;24.05;11.48;;;;;;;-3.88;100.00;99063.06;5024971;28;20021;-73
2022/04/04 05:26:30;;;;;;;20.83;10.63;;;;;;;-3.75;100.00;99065.69;5027807;28;20006;-74
2022/04/04 05:28:55;;;;;;;23.08;10.73;;;;;;;-3.60;100.00;99077.00;5028562;28;20132;-74
2022/04/04 05:31:21;;;;;;;21.75;10.05;;;;;;;-3.48;100.00;99052.34;5028933;28;20086;-71
2022/04/04 05:33:46;;;;;;;17.85;9.80;;;;;;;-2.65;100.00;99060.44;5025310;28;20025;-72
2022/04/04 05:36:11;;;;;;;18.10;10.23;;;;;;;-1.02;93.61;99061.16;5012972;28;20069;-71
2022/04/04 05:38:37;;;;;;;15.85;8.85;;;;;;;0.69;81.13;99076.13;5003765;28;20022;-73
2022/04/04 05:41:02;;;;;;;17.88;8.68;;;;;;;1.08;74.69;99047.78;5021114;28;20076;-72
2022/04/04 05:43:27;;;;;;;15.43;7.97;;;;;;;1.23;72.78;99045.56;5027405;28;20042;-72
2022/04/04 05:45:53;;;;;;;18.27;8.18;;;;;;;2.30;68.79;99083.69;5020211;28;20029;-73
2022/04/04 05:48:18;;;;;;;16.55;8.45;;;;;;;2.99;67.22;99077.16;5026375;28;20808;-73
2022/04/04 05:50:44;;;;;;;13.70;7.57;;;;;;;3.12;64.24;99087.50;5023751;28;20046;-72
2022/04/04 05:53:09;;;;;;;17.52;8.60;;;;;;;3.93;61.74;99062.59;5015458;28;20038;-71
2022/04/04 05:55:35;;;;;;;15.18;8.20;;;;;;;4.12;60.27;99050.84;5013878;28;20030;-73
2022/04/04 05:58:00;;;;;;;18.90;9.27;;;;;;;4.71;57.50;99075.16;5003004;28;20034;-71
2022/04/04 06:00:25;;;;;;;19.45;9.73;;;;;;;4.38;57.09;99042.81;4997137;28;20021;-72
2022/04/04 06:02:51;;;;;;;18.63;9.35;;;;;;;5.10;56.11;99054.06;5000504;28;20030;-72
2022/04/04 06:05:17;;;;;;;21.40;7.80;;;;;;;5.63;53.37;99065.41;4999470;28;20026;-72
2022/04/04 06:07:43;;;;;;;15.68;8.32;;;;;;;6.85;51.33;99077.16;4997567;28;20026;-71
2022/04/04 06:10:09;;;;;;;12.85;6.93;;;;;;;6.97;50.23;99079.28;5006276;28;20026;-71
2022/04/04 06:12:38;;;;;;;17.63;8.30;;;;;;;6.51;49.74;99076.38;4991473;28;20129;-71
2022/04/04 06:15:04;;;;;;;15.10;8.02;;;;;;;6.95;49.76;99075.09;5020108;28;20065;-71
2022/04/04 06:17:30;;;;;;;12.80;7.78;;;;;;;7.67;48.16;99069.50;4996960;28;20109;-71
2022/04/04 06:19:55;;;;;;;19.05;8.55;;;;;;;7.64;47.08;99059.94;5004662;28;20488;-72
2022/04/04 06:22:22;;;;;;;25.00;9.95;;;;;;;7.57;47.45;99042.84;4993651;28;20120;-72
2022/04/04 06:24:49;;;;;;;16.45;8.38;;;;;;;7.98;46.15;99071.31;5006819;28;20037;-72
2022/04/04 06:27:18;;;;;;;14.55;7.85;;;;;;;8.02;46.42;99060.03;5004119;28;20028;-71
2022/04/04 06:29:45;;;;;;;12.02;6.50;;;;;;;8.01;45.21;99044.03;5004335;28;20387;-72
2022/04/04 06:32:10;;;;;;;11.30;6.72;;;;;;;7.97;45.50;99067.81;4994456;28;20034;-72
2022/04/04 06:34:36;;;;;;;13.23;7.07;;;;;;;7.42;45.52;99071.53;5001622;28;20018;-71
2022/04/04 06:37:02;;;;;;;10.48;6.15;;;;;;;7.83;45.64;99063.19;4998158;28;20105;-72
2022/04/04 06:39:28;;;;;;;14.77;7.18;;;;;;;7.76;45.28;99043.38;5007509;28;20025;-71
2022/04/04 06:41:53;;;;;;;11.05;6.40;;;;;;;8.75;43.78;99045.03;4998144;28;20361;-72
2022/04/04 06:44:18;;;;;;;13.95;7.47;;;;;;;7.71;44.29;99046.59;5003000;28;20091;-71
2022/04/04 06:46:44;;;;;;;12.82;6.38;;;;;;;8.25;43.83;99048.34;5011088;28;20161;-71
2022/04/04 06:49:09;;;;;;;11.73;6.47;;;;;;;8.76;42.54;99029.69;5001707;28;20045;-71
2022/04/04 06:51:35;;;;;;;10.85;6.30;;;;;;;8.73;41.28;99057.03;5007171;28;20034;-72
2022/04/04 06:54:03;;;;;;;10.75;6.25;;;;;;;8.79;42.27;99056.28;5003258;28;20488;-72
2022/04/04 06:56:29;;;;;;;12.95;6.75;;;;;;;10.74;40.07;99043.56;4996313;28;20033;-73
2022/04/04 06:58:54;;;;;;;11.13;7.07;;;;;;;11.52;37.11;99042.47;5008187;28;20030;-69
2022/04/04 07:01:19;;;;;;;17.65;7.60;;;;;;;13.59;34.27;99039.41;5010515;28;20030;-71
2022/04/04 07:03:45;;;;;;;10.25;6.55;;;;;;;13.73;32.32;99013.00;5004479;28;20061;-74
2022/04/04 07:06:10;;;;;;;11.98;6.70;;;;;;;13.24;33.14;99016.34;5008640;28;20491;-72
2022/04/04 07:08:36;;;;;;;11.07;6.82;;;;;;;10.89;36.31;99016.38;5002943;28;20022;-72
2022/04/04 07:11:03;;;;;;;10.85;6.88;;;;;;;11.09;36.84;99046.25;4999948;28;20447;-71
2022/04/04 07:13:29;;;;;;;12.77;7.30;;;;;;;11.15;36.63;99045.44;4997560;28;20065;-78
2022/04/04 07:15:54;;;;;;;11.95;7.05;;;;;;;12.19;35.16;99032.63;5004656;28;20065;-72
2022/04/04 07:18:19;;;;;;;18.08;6.88;;;;;;;12.68;34.37;99029.47;5000529;28;20037;-75
2022/04/04 07:20:45;;;;;;;14.60;7.22;;;;;;;11.55;35.90;99040.22;5002902;28;20014;-74
2022/04/04 07:23:10;;;;;;;10.35;6.57;;;;;;;10.32;37.18;99025.56;5004548;28;20439;-73
2022/04/04 07:25:36;;;;;;;12.70;6.65;;;;;;;9.18;39.74;98977.69;5004616;28;20392;-74
2022/04/04 07:28:01;;;;;;;11.60;6.72;;;;;;;8.16;42.84;99038.69;5010220;28;20152;-75
2022/04/04 07:30:27;;;;;;;13.93;7.00;;;;;;;7.66;44.53;99032.84;5009777;28;20030;-75
2022/04/04 07:32:52;;;;;;;11.13;6.70;;;;;;;7.82;44.08;99004.94;5014265;28;20075;-74
2022/04/04 07:35:19;;;;;;;10.38;6.47;;;;;;;9.11;41.92;99032.63;5012614;28;20026;-74
2022/04/04 07:37:46;;;;;;;10.35;6.35;;;;;;;9.91;40.42;99012.72;5003842;28;20057;-74
2022/04/04 07:40:14;;;;;;;14.70;6.85;;;;;;;10.75;38.93;99012.75;5004179;28;20093;-72
2022/04/04 07:42:42;;;;;;;16.73;7.25;;;;;;;9.78;40.49;99001.81;5017527;28;20030;-73
2022/04/04 07:45:09;;;;;;;10.20;6.07;;;;;;;10.41;38.90;99028.97;5016973;28;20060;-74
2022/04/04 07:47:35;;;;;;;14.23;7.15;;;;;;;10.46;39.33;99032.75;5008546;28;20030;-75
2022/04/04 07:50:02;;;;;;;10.38;7.18;;;;;;;11.26;37.80;99013.41;5019732;28;20034;-74
2022/04/04 07:52:27;;;;;;;13.45;6.60;;;;;;;10.82;37.86;99031.75;5015168;28;20082;-73
2022/04/04 07:54:54;;;;;;;11.38;6.35;;;;;;;10.67;38.15;99017.50;5011291;28;20113;-74
2022/04/04 07:57:21;;;;;;;11.77;6.20;;;;;;;11.32;37.43;99009.91;5006174;28;20822;-74
2022/04/04 07:59:47;;;;;;;11.23;6.65;;;;;;;10.89;37.75;98993.88;5010497;28;20041;-75
2022/04/04 08:02:12;;;;;;;11.85;6.60;;;;;;;11.99;36.99;99011.75;4997433;28;20866;-74
2022/04/04 08:04:38;;;;;;;9.65;6.40;;;;;;;11.52;36.55;99008.06;5010578;28;20026;-75
2022/04/04 08:07:04;;;;;;;11.55;6.88;;;;;;;11.61;35.53;98993.31;5004289;28;20029;-71
2022/04/04 08:09:29;;;;;;;10.98;6.65;;;;;;;12.04;35.42;98978.59;5003126;28;20029;-73
2022/04/04 08:11:55;;;;;;;9.13;6.00;;;;;;;12.34;35.86;98964.56;5004002;28;20031;-73
2022/04/04 08:14:21;;;;;;;10.98;6.82;;;;;;;12.87;35.04;98992.44;5007793;28;20412;-71
2022/04/04 08:16:47;;;;;;;13.80;6.90;;;;;;;12.99;34.12;98978.19;5007535;28;20017;-72
2022/04/04 08:19:13;;;;;;;9.27;6.10;;;;;;;12.18;34.96;98974.84;5006597;28;20034;-71
2022/04/04 08:21:41;;;;;;;11.73;6.32;;;;;;;11.49;35.78;98967.84;5004261;28;20032;-72
2022/04/04 08:24:07;;;;;;;12.30;6.07;;;;;;;12.17;35.46;98981.28;4999335;28;20018;-71
2022/04/04 08:26:33;;;;;;;10.20;5.90;;;;;;;12.74;34.19;98949.06;5002223;28;20084;-75
2022/04/04 08:28:58;;;;;;;8.98;5.43;;;;;;;12.75;33.88;98986.00;4996209;28;20476;-71
2022/04/04 08:31:24;;;;;;;10.23;6.30;;;;;;;12.49;33.86;98982.28;5009858;28;20040;-70
2022/04/04 08:33:49;;;;;;;10.23;5.53;;;;;;;12.52;34.18;98969.34;5010449;28;20017;-71
2022/04/04 08:36:15;;;;;;;14.55;6.35;;;;;;;12.53;33.63;98976.47;5009378;28;20397;-71
2022/04/04 08:38:41;;;;;;;8.60;5.68;;;;;;;13.37;33.28;98970.94;5016631;28;20034;-74
2022/04/04 08:41:09;;;;;;;9.05;6.35;;;;;;;12.90;34.04;98931.44;5016984;28;20025;-71
2022/04/04 08:43:42;;;;;;;8.13;5.72;;;;;;;13.76;32.65;98969.03;5010664;28;20029;-73
2022/04/04 08:46:07;;;;;;;8.77;5.95;;;;;;;14.03;31.38;98947.91;5010015;28;20558;-74
2022/04/04 08:48:36;;;;;;;13.95;6.40;;;;;;;12.84;33.42;98932.31;5016099;28;20026;-71
2022/04/04 08:51:01;;;;;;;8.02;5.35;;;;;;;15.07;29.71;98950.00;5003519;28;20109;-74
2022/04/04 08:53:28;;;;;;;11.55;6.05;;;;;;;14.71;30.51;98929.06;5000111;28;20038;-74
2022/04/04 08:55:56;;;;;;;9.00;5.93;;;;;;;14.98;30.51;98946.75;5005477;28;20042;-71
2022/04/04 08:58:21;;;;;;;10.90;4.97;;;;;;;16.49;27.08;98951.22;5003792;28;20030;-69
2022/04/04 09:00:46;;;;;;;12.07;5.63;;;;;;;15.28;28.25;98918.72;5019252;28;20025;-73
2022/04/04 09:03:19;;;;;;;7.53;5.28;;;;;;;15.36;28.80;98933.91;5001239;28;20025;-72
2022/04/04 09:05:58;;;;;;;6.60;4.93;;;;;;;15.09;28.29;98937.81;5004083;28;20057;-71
2022/04/04 09:08:25;;;;;;;7.93;4.90;;;;;;;15.97;27.09;98902.75;5003797;28;20034;-73
2022/04/04 09:10:56;;;;;;;9.90;5.00;;;;;;;16.64;27.24;98922.34;5003687;28;20052;-74
2022/04/04 09:13:23;;;;;;;6.80;4.55;;;;;;;16.38;27.47;98918.22;4993584;28;20026;-75
2022/04/04 09:15:53;;;;;;;7.68;4.57;;;;;;;17.99;25.97;98916.47;5001684;28;20026;-74
2022/04/04 09:18:41;;;;;;;6.22;4.60;;;;;;;16.77;25.49;98907.63;4996972;28;20049;-73
2022/04/04 09:21:33;;;;;;;7.07;3.78;;;;;;;17.93;24.86;98890.91;5004851;28;20030;-74
2022/04/04 09:24:03;;;;;;;5.50;4.10;;;;;;;16.68;25.30;98883.59;5004932;28;20038;-74
2022/04/04 09:26:32;;;;;;;5.65;4.10;;;;;;;17.88;23.41;98888.09;5007610;28;20026;-74
2022/04/04 09:29:18;;;;;;;5.13;3.92;;;;;;;16.36;25.17;98884.84;5000567;28;20610;-73
2022/04/04 09:31:58;;;;;;;6.05;3.33;;;;;;;14.96;24.68;98861.72;5003172;28;20026;-72
2022/04/04 09:34:23;;;;;;;5.05;3.30;;;;;;;16.04;24.06;98881.66;5002036;28;20025;-71
2022/04/04 09:36:49;;;;;;;5.53;3.50;;;;;;;16.27;25.53;98859.00;5005402;28;20029;-74
2022/04/04 09:39:16;;;;;;;4.13;3.13;;;;;;;18.11;22.36;98858.91;5000896;28;20113;-74
2022/04/04 09:41:41;;;;;;;4.97;3.67;;;;;;;16.53;24.10;98840.41;5008657;28;20676;-74
2022/04/04 09:44:11;;;;;;;3.67;3.10;;;;;;;15.07;25.23;98863.63;5008947;28;20074;-69
2022/04/04 09:46:39;;;;;;;5.63;3.80;;;;;;;16.35;24.66;98853.16;5006624;28;20075;-76
2022/04/04 09:49:10;;;;;;;7.53;4.18;;;;;;;14.84;25.64;98849.91;5010852;28;20084;-76
2022/04/04 09:51:41;;;;;;;4.70;3.80;;;;;;;15.27;26.69;98852.47;5008212;28;20559;-76
2022/04/04 09:54:19;;;;;;;6.75;3.60;;;;;;;13.81;26.83;98841.41;5007462;28;20029;-75
2022/04/04 09:56:46;;;;;;;5.00;3.53;;;;;;;14.59;25.30;98818.19;5014078;28;20526;-76
2022/04/04 09:59:14;;;;;;;3.53;2.95;;;;;;;16.33;24.98;98833.44;5013835;28;20487;-74
2022/04/04 10:01:41;;;;;;;4.40;3.33;;;;;;;15.20;25.62;98835.38;5033320;28;20025;-73
2022/04/04 10:04:07;;;;;;;8.02;3.90;;;;;;;14.77;26.10;98830.94;5024366;28;20068;-74
2022/04/04 10:06:34;;;;;;;5.35;3.40;;;;;;;17.36;24.19;98825.34;5006218;28;20080;-75
2022/04/04 10:09:01;;;;;;;4.28;3.20;;;;;;;16.74;23.64;98826.13;5010718;28;20018;-74
2022/04/04 10:11:28;;;;;;;5.07;3.47;;;;;;;16.78;24.08;98805.44;5012565;28;20519;-74
2022/04/04 10:13:54;;;;;;;4.35;3.03;;;;;;;16.98;23.14;98815.94;5011246;28;20026;-74
2022/04/04 10:16:22;;;;;;;5.03;3.17;;;;;;;14.04;26.10;98810.00;5008832;28;20022;-74
2022/04/04 10:18:48;;;;;;;4.85;3.13;;;;;;;14.02;24.92;98793.09;5011227;28;20029;-74
2022/04/04 10:21:14;;;;;;;4.18;3.20;;;;;;;15.43;25.26;98803.75;5011211;28;20198;-74
2022/04/04 10:23:41;;;;;;;3.83;3.00;;;;;;;14.18;25.76;98787.03;5010214;28;20108;-75
2022/04/04 10:26:07;;;;;;;5.18;3.20;;;;;;;16.16;23.85;98781.47;5014728;28;20030;-75
2022/04/04 10:28:38;;;;;;;4.72;3.17;;;;;;;15.86;23.51;98789.84;5011561;28;20026;-75
2022/04/04 10:31:26;;;;;;;4.53;3.08;;;;;;;14.89;24.87;98801.84;5012652;28;20030;-75
2022/04/04 10:33:52;;;;;;;6.25;3.13;;;;;;;16.03;24.56;98783.63;5001259;28;20030;-75
2022/04/04 10:36:23;;;;;;;5.22;3.45;;;;;;;16.34;23.93;98766.84;5004828;28;20057;-74
2022/04/04 10:38:54;;;;;;;4.82;3.15;;;;;;;15.40;23.93;98788.69;5012534;28;20025;-74
2022/04/04 10:41:22;;;;;;;5.88;3.47;;;;;;;13.27;26.46;98785.81;5033861;28;20032;-77
2022/04/04 10:43:49;;;;;;;4.85;3.50;;;;;;;14.32;26.25;98787.69;5031789;28;20025;-74
2022/04/04 10:46:19;;;;;;;4.30;3.20;;;;;;;14.74;26.37;98781.53;5003638;28;20384;-76
2022/04/04 10:48:49;;;;;;;5.50;3.10;;;;;;;16.65;24.96;98760.09;5010235;28;20033;-73
2022/04/04 10:51:17;;;;;;;3.38;2.88;;;;;;;16.75;24.31;98756.72;5000645;28;20022;-73
2022/04/04 10:54:10;;;;;;;6.45;3.20;;;;;;;15.94;24.75;98751.25;5006130;28;20022;-73
2022/04/04 10:56:46;;;;;;;2.92;2.63;;;;;;;16.99;23.65;98742.97;5008084;28;20026;-73
2022/04/04 10:59:32;;;;;;;4.53;3.33;;;;;;;15.90;24.83;98744.66;5010890;28;20512;-76
2022/04/04 11:01:59;;;;;;;4.88;3.33;;;;;;;16.11;25.37;98734.13;5014695;28;20049;-74
2022/04/04 11:04:26;;;;;;;4.15;3.20;;;;;;;17.49;24.67;98731.22;5015172;28;20033;-74
2022/04/04 11:10:07;;;;;;;4.85;3.22;;;;;;;16.88;23.82;98722.00;5015479;28;20394;-74
2022/04/04 11:12:55;;;;;;;7.63;3.15;;;;;;;15.44;24.58;98718.19;5013904;28;20096;-77
2022/04/04 11:15:40;;;;;;;3.83;3.00;;;;;;;15.78;25.10;98702.91;5000693;28;20022;-73
2022/04/04 11:18:05;;;;;;;2.85;2.53;;;;;;;17.98;23.52;98722.38;5008289;28;20019;-74
2022/04/04 11:20:33;;;;;;;3.70;2.92;;;;;;;17.33;24.00;98712.91;5009890;28;20034;-77
2022/04/04 11:23:08;;;;;;;5.03;3.10;;;;;;;16.63;23.80;98696.66;5013313;28;20022;-75
2022/04/04 11:25:35;;;;;;;4.20;3.15;;;;;;;15.85;24.29;98697.28;5014488;28;20153;-75
2022/04/04 11:28:07;;;;;;;4.65;3.10;;;;;;;14.55;25.92;98699.09;5011590;28;20447;-73